Latest Weather Observations for Emerald

IDQ60801

Issued at 11:52 pm EST Monday 19 November 2018 (issued every 10 minutes, with the page automatically refreshed every 10 minutes)

About weather observations | Map of weather stations | Latest weather observations for QLD | Other Formats
Station Details ID: 035264 Name: EMERALD AIRPORT Lat: -23.57 Lon: 148.18 Height: 189.4 m
Data from the previous 72 hours. | See also: Recent months at Emerald
Date/Time
EST
Temp
°C
App
Temp
°C
Dew
Point
°C
Rel
Hum
%
Delta-T
°C
Wind Press
QNH
hPa
Press
MSL
hPa
Rain since
9am
mm
Dir  Spd
km/h
Gust
km/h
Spd
kts
Gust
kts
19/11:30pm 22.5 21.6 17.8 75 2.9 NE 19 28 10 15 1015.3 - 0.0
19/11:00pm 22.8 21.8 17.9 74 3.1 ENE 20 28 11 15 1015.4 - 0.0
19/10:30pm 23.3 22.6 18.2 73 3.2 NE 19 26 10 14 1015.4 - 0.0
19/10:00pm 23.7 22.4 18.1 71 3.5 NE 22 30 12 16 1015.1 - 0.0
19/09:30pm 24.0 23.2 18.4 71 3.6 ENE 20 28 11 15 1015.3 - 0.0
19/09:00pm 24.6 22.7 18.5 69 3.9 NE 26 35 14 19 1015.1 1013.9 0.0
19/08:30pm 25.4 23.5 18.6 66 4.4 NE 26 37 14 20 1014.4 - 0.0
19/08:00pm 25.9 24.8 18.6 64 4.7 NE 22 28 12 15 1013.8 - 0.0
19/07:30pm 26.4 24.5 18.5 62 5.1 ENE 26 37 14 20 1013.4 - 0.0
19/07:00pm 26.9 24.7 18.7 60 5.3 ENE 28 35 15 19 1013.2 - 0.0
19/06:30pm 27.9 25.8 18.9 58 5.8 ENE 28 33 15 18 1012.8 - 0.0
19/06:00pm 28.6 27.4 19.2 56 6.1 ENE 24 33 13 18 1012.6 1011.5 0.0
19/05:30pm 29.7 28.0 18.2 50 7.4 ENE 24 30 13 16 1012.1 - 0.0
19/05:00pm 30.6 29.5 17.7 46 8.3 ENE 20 30 11 16 1012.0 - 0.0
19/04:30pm 30.6 29.8 18.0 47 8.1 E 19 26 10 14 1012.0 - 0.0
19/04:00pm 30.3 29.8 17.7 46 8.1 E 17 32 9 17 1012.1 - 0.0
19/03:30pm 30.7 30.4 17.4 45 8.5 E 15 22 8 12 1012.1 - 0.0
19/03:00pm 29.9 29.6 17.4 47 8.0 E 15 26 8 14 1012.5 1011.4 0.0
19/02:30pm 30.1 30.1 18.2 49 7.7 ENE 15 26 8 14 1012.9 - 0.0
19/02:00pm 30.3 30.1 18.4 49 7.7 ENE 17 28 9 15 1013.2 - 0.0
19/01:30pm 29.1 29.1 18.2 51 7.0 E 15 24 8 13 1013.9 - 0.0
19/01:00pm 28.9 29.2 18.7 54 6.6 ENE 15 26 8 14 1014.3 - 0.0
19/12:30pm 29.0 28.2 17.2 49 7.5 ENE 17 24 9 13 1014.7 - 0.0
19/12:00pm 28.0 27.2 18.1 55 6.3 ENE 19 28 10 15 1015.2 1014.0 0.0
19/11:30am 27.1 27.6 19.2 62 5.1 ENE 15 20 8 11 1015.8 - 0.0
19/11:00am 26.7 27.5 19.1 63 4.9 NNE 13 30 7 16 1016.0 - 0.0
19/10:30am 25.6 25.0 18.8 66 4.4 ENE 20 30 11 16 1016.5 - 0.0
19/10:00am 24.9 25.1 19.3 71 3.6 NE 17 24 9 13 1016.9 - 0.0
19/09:30am 24.1 24.8 19.6 76 2.9 ENE 15 22 8 12 1017.2 - 0.0
19/09:06am 23.8 23.8 19.7 78 2.7 E 19 24 10 13 1017.3 - 0.0
19/09:00am 23.9 24.4 20.0 79 2.5 E 17 22 9 12 1017.3 1016.2 5.2
19/08:30am 22.9 23.0 19.9 83 1.9 E 19 24 10 13 1017.3 - 5.2
19/08:00am 22.2 22.8 20.3 89 1.2 E 17 24 9 13 1017.2 - 5.2
19/07:30am 22.1 23.3 20.0 88 1.4 ESE 13 20 7 11 1017.2 - 5.2
19/07:00am 21.2 22.8 20.0 93 0.8 ESE 11 15 6 8 1017.0 - 5.2
19/06:31am 21.1 22.5 20.3 95 0.5 SE 13 15 7 8 1016.5 - 5.2
19/06:30am 21.1 22.9 20.3 95 0.5 SE 11 15 6 8 1016.5 - 5.2
19/06:00am 20.6 22.7 20.1 97 0.3 SE 9 11 5 6 1016.2 1015.1 5.2
19/05:30am 20.1 21.9 19.6 97 0.3 E 9 11 5 6 1015.8 - 5.2
19/05:00am 20.1 22.2 19.4 96 0.4 E 7 11 4 6 1015.7 - 5.2
19/04:30am 20.0 20.9 19.3 96 0.4 ENE 13 19 7 10 1015.1 - 5.2
19/04:00am 20.0 19.8 19.3 96 0.4 ENE 19 24 10 13 1014.8 - 5.2
19/03:30am 20.3 21.3 20.3 100 0.0 ENE 15 28 8 15 1014.6 - 5.2
19/03:28am 20.3 21.7 20.3 100 0.0 ENE 13 20 7 11 1014.6 - 5.2
19/03:14am 20.2 19.8 20.2 100 0.0 NE 22 32 12 17 1014.5 - 4.8
19/03:10am 20.2 19.5 20.2 100 0.0 NNE 24 32 13 17 1014.1 - 4.6
19/03:00am 20.5 20.8 20.5 100 0.0 N 19 24 10 13 1014.7 1013.5 4.2
19/02:30am 20.6 22.5 20.6 100 0.0 N 11 15 6 8 1015.7 - 4.2
19/02:00am 20.3 21.6 20.1 99 0.1 NE 13 17 7 9 1015.6 - 4.0
19/01:31am 20.3 21.2 20.1 99 0.1 NNE 15 20 8 11 1016.0 - 4.0
19/01:30am 20.3 21.2 20.1 99 0.1 NNE 15 20 8 11 1016.0 - 4.0
19/01:00am 20.2 21.0 19.9 98 0.2 NNE 15 24 8 13 1016.3 - 3.2
19/12:30am 20.2 20.7 20.0 99 0.1 NE 17 28 9 15 1016.6 - 2.6
19/12:00am 20.3 18.6 19.8 97 0.3 NE 28 39 15 21 1016.6 1015.5 2.0
 
Date/Time
EST
Temp
°C
App
Temp
°C
Dew
Point
°C
Rel
Hum
%
Delta-T
°C
Wind Press
QNH
hPa
Press
MSL
hPa
Rain since
9am
mm
Dir  Spd
km/h
Gust
km/h
Spd
kts
Gust
kts
18/11:30pm 20.5 18.6 20.2 98 0.2 ENE 30 39 16 21 1017.0 - 1.2
18/11:00pm 20.7 17.6 20.4 98 0.2 E 37 48 20 26 1016.7 - 1.2
18/10:30pm 20.7 16.7 20.2 97 0.3 E 41 48 22 26 1016.2 - 0.8
18/10:00pm 20.7 16.9 19.7 94 0.6 ESE 39 50 21 27 1016.4 - 0.8
18/09:30pm 21.0 18.0 19.1 89 1.2 SE 33 44 18 24 1016.1 - 0.8
18/09:00pm 21.1 19.2 19.4 90 1.1 SSE 28 41 15 22 1015.6 1014.4 0.8
18/08:30pm 20.9 18.1 19.4 91 1.0 SSE 33 44 18 24 1014.7 - 0.8
18/08:00pm 20.9 16.6 19.6 92 0.8 S 41 57 22 31 1014.2 - 0.4
18/07:41pm 21.6 15.5 19.3 87 1.5 S 50 72 27 39 1013.9 - 0.0
18/07:30pm 24.2 18.3 16.7 63 4.6 SSE 43 67 23 36 1012.7 - 0.0
18/07:29pm 24.6 18.5 16.3 60 5.1 SSE 43 67 23 36 1012.8 - 0.0
18/07:27pm 25.3 19.6 16.2 57 5.6 SSE 41 57 22 31 1013.1 - 0.0
18/07:20pm 30.3 25.9 16.7 44 8.6 SE 35 56 19 30 1013.1 - 0.0
18/07:00pm 31.0 28.7 16.6 42 9.1 NE 24 37 13 20 1010.9 - 0.0
18/06:30pm 31.9 28.0 15.4 37 10.3 NE 30 41 16 22 1010.1 - 0.0
18/06:00pm 34.3 31.7 13.2 28 12.9 NE 19 26 10 14 1009.5 1008.3 0.0
18/05:30pm 34.8 33.1 12.5 26 13.5 NE 13 20 7 11 1009.0 - 0.0
18/05:00pm 35.3 33.0 12.9 26 13.6 N 17 24 9 13 1009.0 - 0.0
18/04:30pm 35.5 34.0 13.1 26 13.7 N 13 24 7 13 1008.9 - 0.0
18/04:00pm 34.9 32.5 12.5 25 13.5 E 17 26 9 14 1008.9 - 0.0
18/03:30pm 36.1 33.4 13.6 26 13.9 ENE 20 30 11 16 1009.2 - 0.0
18/03:00pm 35.2 34.4 13.9 27 13.2 NE 11 20 6 11 1009.7 1008.5 0.0
18/02:30pm 33.8 31.8 13.8 30 12.3 ENE 17 24 9 13 1010.4 - 0.0
18/02:00pm 35.0 33.1 14.3 29 12.9 NNE 17 22 9 12 1010.8 - 0.0
18/01:30pm 34.3 33.9 14.2 29 12.4 SW 9 19 5 10 1011.5 - 0.0
18/01:00pm 34.1 33.1 15.5 32 11.7 ENE 15 24 8 13 1012.2 - 0.0
18/12:30pm 33.2 32.2 15.7 35 11.0 E 15 28 8 15 1012.8 - 0.0
18/12:00pm 32.7 31.9 16.1 37 10.5 E 15 26 8 14 1013.1 1012.0 0.0
18/11:30am 32.0 32.0 17.1 41 9.5 NE 13 26 7 14 1013.5 - 0.0
18/11:00am 31.7 30.9 17.2 42 9.3 E 17 28 9 15 1014.0 - 0.0
18/10:30am 30.9 29.9 17.9 45 8.4 E 20 30 11 16 1014.1 - 0.0
18/10:00am 30.3 29.4 17.7 46 8.1 NE 19 28 10 15 1014.6 - 0.0
18/09:30am 29.3 28.1 18.4 51 7.0 ENE 22 33 12 18 1014.7 - 0.0
18/09:00am 29.0 28.5 19.0 54 6.5 ENE 20 30 11 16 1014.7 1013.5 1.0
18/08:30am 27.8 27.3 19.1 59 5.7 ENE 20 28 11 15 1014.8 - 1.0
18/08:00am 26.3 25.8 19.2 65 4.6 NE 20 28 11 15 1014.7 - 1.0
18/07:30am 25.5 25.0 19.2 68 4.1 NE 20 30 11 16 1014.6 - 1.0
18/07:00am 24.6 25.7 20.5 78 2.7 ENE 15 22 8 12 1014.1 - 1.0
18/06:30am 22.6 22.9 19.6 83 1.9 ENE 17 24 9 13 1014.0 - 1.0
18/06:00am 22.3 22.1 19.3 83 1.9 ENE 19 24 10 13 1013.3 1012.2 1.0
18/05:30am 21.9 22.8 19.3 85 1.7 NE 13 17 7 9 1013.1 - 1.0
18/05:00am 22.0 22.8 19.9 88 1.4 ENE 15 20 8 11 1012.7 - 1.0
18/04:30am 22.2 22.7 20.1 88 1.4 NE 17 20 9 11 1012.6 - 1.0
18/04:00am 22.6 23.0 19.9 85 1.7 ENE 17 22 9 12 1012.3 - 1.0
18/03:30am 22.9 23.9 20.2 85 1.8 ENE 15 20 8 11 1012.3 - 1.0
18/03:00am 23.1 24.8 20.2 84 1.9 ENE 11 15 6 8 1012.0 1010.9 1.0
18/02:30am 23.6 25.8 20.3 82 2.2 N 9 11 5 6 1011.7 - 1.0
18/02:00am 23.6 26.3 20.7 84 1.9 N 7 9 4 5 1012.2 - 1.0
18/01:30am 23.6 27.4 20.1 81 2.3 CALM 0 6 0 3 1012.6 - 1.0
18/01:00am 23.5 25.4 20.6 84 1.9 SE 11 13 6 7 1012.7 - 1.0
18/12:30am 23.4 26.0 20.5 84 1.9 E 7 9 4 5 1013.0 - 1.0
18/12:00am 23.5 25.8 20.6 84 1.9 E 9 11 5 6 1013.5 1012.4 1.0
 
Date/Time
EST
Temp
°C
App
Temp
°C
Dew
Point
°C
Rel
Hum
%
Delta-T
°C
Wind Press
QNH
hPa
Press
MSL
hPa
Rain since
9am
mm
Dir  Spd
km/h
Gust
km/h
Spd
kts
Gust
kts
17/11:30pm 23.4 24.7 20.1 82 2.1 ESE 13 15 7 8 1013.9 - 1.0
17/11:00pm 25.0 27.2 19.1 70 3.8 S 6 7 3 4 1014.6 - 0.6
17/10:30pm 25.1 25.9 18.1 65 4.4 S 11 15 6 8 1014.6 - 0.6
17/10:00pm 24.8 24.9 18.3 67 4.1 SSW 15 20 8 11 1014.8 - 0.6
17/09:30pm 24.7 24.5 19.3 72 3.5 SSW 19 26 10 14 1015.0 - 0.6
17/09:00pm 24.6 26.7 19.4 73 3.4 E 7 9 4 5 1014.4 1013.2 0.6
17/08:30pm 24.4 24.8 19.9 76 2.9 E 17 22 9 12 1013.6 - 0.6
17/08:00pm 27.5 27.6 17.4 54 6.4 ESE 13 22 7 12 1013.5 - 0.0
17/07:30pm 28.7 28.1 14.5 42 8.6 SSE 11 19 6 10 1012.7 - 0.0
17/07:00pm 30.0 27.8 14.9 39 9.3 SSE 20 28 11 15 1011.7 - 0.0
17/06:30pm 30.7 27.7 14.8 38 9.8 SSE 24 33 13 18 1010.9 - 0.0
17/06:24pm 30.7 26.9 14.8 38 9.8 SSE 28 39 15 21 1010.8 - 0.0
17/06:00pm 34.2 32.6 11.4 25 13.5 ENE 11 17 6 9 1010.1 1008.9 0.0
17/05:30pm 34.8 32.7 11.2 24 14.0 ENE 13 17 7 9 1009.9 - 0.0
17/05:00pm 35.4 32.9 11.1 23 14.4 NE 15 20 8 11 1009.6 - 0.0
17/04:30pm 36.1 34.9 11.7 23 14.6 NE 9 17 5 9 1009.5 - 0.0
17/04:00pm 36.2 33.9 11.8 23 14.7 ENE 15 28 8 15 1009.6 - 0.0
17/03:30pm 35.5 32.8 11.8 24 14.2 E 17 24 9 13 1009.8 - 0.0
17/03:00pm 35.5 32.8 11.8 24 14.2 NNE 17 26 9 14 1010.1 1008.9 0.0
17/02:30pm 35.2 33.4 13.4 27 13.4 NE 15 24 8 13 1010.4 - 0.0
17/02:00pm 35.0 33.2 13.2 27 13.3 E 15 26 8 14 1011.1 - 0.0
17/01:30pm 34.4 32.8 13.8 29 12.7 E 15 24 8 13 1011.7 - 0.0
17/01:00pm 34.1 33.7 14.1 30 12.3 ENE 9 15 5 8 1012.4 - 0.0
17/12:30pm 33.5 31.1 14.5 31 11.8 E 20 32 11 17 1013.0 - 0.0
17/12:00pm 32.9 31.8 15.4 35 11.0 ENE 15 24 8 13 1013.6 1012.5 0.0
17/11:30am 31.8 30.3 15.3 37 10.3 E 17 28 9 15 1014.0 - 0.0
17/11:00am 30.9 29.3 16.1 41 9.3 ENE 19 26 10 14 1014.5 - 0.0
17/10:30am 31.2 30.7 16.8 42 9.1 E 15 26 8 14 1015.1 - 0.0
17/10:00am 29.7 30.7 16.8 45 8.2 E 7 22 4 12 1015.4 - 0.0
17/09:30am 28.6 28.1 16.8 48 7.4 ENE 15 22 8 12 1015.6 - 0.0
17/09:00am 28.1 27.7 16.1 48 7.5 NE 13 22 7 12 1015.6 1014.4 0.0
17/08:30am 26.7 25.1 15.1 49 7.1 N 17 20 9 11 1015.9 - 0.0
17/08:00am 25.7 24.0 14.8 51 6.6 N 17 20 9 11 1015.7 - 0.0
17/07:30am 25.0 24.2 16.2 58 5.4 NNE 15 19 8 10 1015.5 - 0.0
17/07:00am 24.1 23.9 16.6 63 4.6 NE 13 20 7 11 1015.3 - 0.0
17/06:30am 23.1 23.4 16.9 68 3.8 ENE 11 15 6 8 1015.2 - 0.0
17/06:00am 21.8 22.4 16.7 73 3.1 E 9 11 5 6 1014.9 1013.7 0.0
17/05:30am 20.9 20.5 16.3 75 2.8 ENE 13 17 7 9 1014.0 - 0.0
17/05:00am 20.8 21.1 16.0 74 2.9 ENE 9 15 5 8 1013.5 - 0.0
17/04:30am 21.7 21.2 16.0 70 3.5 NNE 13 17 7 9 1013.2 - 0.0
17/04:00am 21.9 22.1 15.7 68 3.7 NNE 9 13 5 7 1013.2 - 0.0
17/03:30am 22.1 21.4 15.5 66 4.0 NE 13 17 7 9 1012.6 - 0.0
17/03:00am 22.3 21.9 15.2 64 4.3 NE 11 15 6 8 1012.5 1011.4 0.0
17/02:30am 22.8 22.8 15.1 62 4.6 NNE 9 13 5 7 1012.5 - 0.0
17/02:00am 23.2 22.8 15.3 61 4.8 NNE 11 15 6 8 1012.6 - 0.0
17/01:30am 23.7 22.6 15.2 59 5.1 NNE 15 20 8 11 1012.7 - 0.0
17/01:00am 24.3 22.9 15.5 58 5.3 NE 17 26 9 14 1012.9 - 0.0
17/12:30am 24.8 23.6 16.0 58 5.4 NE 17 24 9 13 1013.2 - 0.0
17/12:00am 25.5 23.9 16.1 56 5.8 NE 19 28 10 15 1013.5 1012.4 0.0

Other Formats:

Comma delimited format used in spreadsheet applications
http://www.bom.gov.au/fwo/IDQ60801/IDQ60801.94363.axf

JavaScript Object Notation format (JSON) in row-major order
http://www.bom.gov.au/fwo/IDQ60801/IDQ60801.94363.json